Aeroporto :
LOGIN :

Iscrizione | Disclaimer

   EN    FR    IT 

 










Sommario :    VFR   VFR Marginale   IFR   IFR Intensivo   IFR Molto Intensivo
Visibilità : 
Base nubi : 
>= 8 km
>= 3000ft
5 / 8 km
1000 / 3000 ft
1500m / 5 km
500 / 1000 ft
800 / 1500m
200 / 500 ft
< 800m
< 200 ft
Simboli :   Temporali  Nebbia  Neve Forte  Precipitazioni Forti  Vento > 20 kt
SIGMETs :   Varie  Temporali  Ghiacco  Turbolenza  Onda orograficha  Ceneri Vulcaniche






- Altitudine del aeroporto : 6 ft
- Codice IATA : CFU


LGKR - Corfu Kerkyra

ULTIMO METAR :
  • 021320Z 27009KT 9999 FEW045 15/07 Q1012 NOSIG

METARs OBSOLETI :
  • 021250Z 15005KT 9999 FEW045 15/07 Q1012 NOSIG
  • 021220Z 13005KT 9999 FEW035 15/07 Q1013 NOSIG
  • 021150Z 06004KT 9999 FEW035 15/07 Q1013 NOSIG
  • 021120Z 11005KT 9999 FEW030 14/05 Q1013 NOSIG
  • 021050Z 09006KT 9999 FEW020 14/05 Q1013 NOSIG

TAF TAF LGKR
Valido dal 02 a 12 ore il 03 a 12 ore UTC


021100Z 0212/0312 09008KT 9999 FEW020
PROB40
TEMPO 0303/0312 5000 RA SCT010 FEW018TCU BKN080



MetMap, La meteo Aeronautica in un colpo d'occhio ! - Copyright ORBIFLY Dicembre 2007 - Disclaimer

ORBIFLY MET'MAP TEAM :

Programmazione e sviluppo : Alexandra Zaïnal
Concezione : Baudouin d'Aumeries
Aiuto per la programmazione : Marc-Olivier Méhu
Supporto tecnico e logistico : Manuel Goepfert
Aiuto per la traduzione : Arnaldo La Scala

Contatto : metmap@orbifly.com




FONTI E CREDITI :

   NOAA